createdAt,value
2022-10-16T00:01:16.296Z,98063.22
2022-10-16T00:03:42.392Z,98059.53
2022-10-16T00:06:08.499Z,98055.44
2022-10-16T00:08:34.595Z,98055.63
2022-10-16T00:11:00.693Z,98063.22
2022-10-16T00:13:26.838Z,98061.59
2022-10-16T00:15:52.937Z,98056.66
2022-10-16T00:18:19.030Z,98055.00
2022-10-16T00:20:45.194Z,98062.00
2022-10-16T00:23:11.360Z,98062.00
2022-10-16T00:25:37.436Z,98068.13
2022-10-16T00:28:03.556Z,98067.31
2022-10-16T00:30:29.642Z,98064.44
2022-10-16T00:32:55.740Z,98056.84
2022-10-16T00:35:21.859Z,98051.94
2022-10-16T00:37:47.954Z,98063.81
2022-10-16T00:40:14.044Z,98067.47
2022-10-16T00:42:40.145Z,98066.66
2022-10-16T00:45:06.241Z,98062.16
2022-10-16T00:47:32.330Z,98067.47
2022-10-16T00:49:58.942Z,98071.41
2022-10-16T00:52:25.337Z,98066.06
2022-10-16T00:54:51.661Z,98064.22
2022-10-16T00:57:17.776Z,98066.06
2022-10-16T00:59:43.865Z,98067.69
2022-10-16T01:02:09.941Z,98066.47
2022-10-16T01:04:36.067Z,98059.50
2022-10-16T01:07:02.146Z,98065.41
2022-10-16T01:09:28.436Z,98070.34
2022-10-16T01:11:54.556Z,98069.50
2022-10-16T01:14:20.679Z,98068.66
2022-10-16T01:16:46.771Z,98067.84
2022-10-16T01:19:12.879Z,98067.84
2022-10-16T01:21:38.980Z,98073.41
2022-10-16T01:24:05.070Z,98070.94
2022-10-16T01:26:31.335Z,98066.41
2022-10-16T01:28:57.477Z,98069.66
2022-10-16T01:31:23.596Z,98076.22
2022-10-16T01:33:49.763Z,98080.53
2022-10-16T01:36:15.903Z,98089.13
2022-10-16T01:38:41.990Z,98085.81
2022-10-16T01:41:08.089Z,98102.22
2022-10-16T01:43:34.180Z,98096.25
2022-10-16T01:46:00.270Z,98100.41
2022-10-16T01:48:26.373Z,98094.63
2022-10-16T01:50:52.473Z,98085.59
2022-10-16T01:53:18.570Z,98093.59
2022-10-16T01:55:44.729Z,98088.44
2022-10-16T01:58:10.821Z,98093.38
2022-10-16T02:00:36.926Z,98090.06
2022-10-16T02:03:03.031Z,98086.59
2022-10-16T02:05:29.126Z,98079.84
2022-10-16T02:07:55.210Z,98090.28
2022-10-16T02:10:21.337Z,98087.19
2022-10-16T02:12:47.486Z,98089.22
2022-10-16T02:15:13.602Z,98085.56
2022-10-16T02:17:39.707Z,98088.84
2022-10-16T02:20:05.803Z,98096.63
2022-10-16T02:22:31.891Z,98101.75
2022-10-16T02:24:57.989Z,98098.69
2022-10-16T02:27:24.077Z,98089.66
2022-10-16T02:29:50.177Z,98090.88
2022-10-16T02:32:16.273Z,98085.56
2022-10-16T02:34:42.373Z,98090.06
2022-10-16T02:37:08.466Z,98082.28
2022-10-16T02:39:34.582Z,98081.06
2022-10-16T02:42:00.670Z,98080.22
2022-10-16T02:44:26.766Z,98077.56
2022-10-16T02:46:52.881Z,98082.44
2022-10-16T02:49:18.981Z,98083.91
2022-10-16T02:51:45.076Z,98082.09
2022-10-16T02:54:11.178Z,98094.16
2022-10-16T02:56:37.264Z,98096.22
2022-10-16T02:59:03.351Z,98090.47
2022-10-16T03:01:29.477Z,98090.47
2022-10-16T03:03:55.630Z,98084.34
2022-10-16T03:06:21.716Z,98083.31
2022-10-16T03:08:47.837Z,98091.34
2022-10-16T03:11:13.937Z,98082.72
2022-10-16T03:13:40.015Z,98085.38
2022-10-16T03:16:06.108Z,98083.75
2022-10-16T03:18:32.185Z,98076.41
2022-10-16T03:20:58.285Z,98091.34
2022-10-16T03:23:24.947Z,98089.31
2022-10-16T03:25:51.110Z,98087.66
2022-10-16T03:28:17.197Z,98083.97
2022-10-16T03:30:43.297Z,98091.91
2022-10-16T03:33:09.405Z,98087.22
2022-10-16T03:35:35.492Z,98082.13
2022-10-16T03:38:01.589Z,98079.47
2022-10-16T03:40:27.752Z,98072.06
2022-10-16T03:42:53.842Z,98068.81
2022-10-16T03:45:19.952Z,98069.22
2022-10-16T03:47:46.039Z,98071.47
2022-10-16T03:50:12.119Z,98078.66
2022-10-16T03:52:38.215Z,98069.63
2022-10-16T03:55:04.305Z,98077.84
2022-10-16T03:57:30.429Z,98083.94
2022-10-16T03:59:57.035Z,98100.34
2022-10-16T04:02:23.113Z,98091.28
2022-10-16T04:04:49.204Z,98091.75
2022-10-16T04:07:15.336Z,98093.13
2022-10-16T04:09:41.421Z,98096.84
2022-10-16T04:12:07.518Z,98088.22
2022-10-16T04:14:33.619Z,98103.56
2022-10-16T04:16:59.701Z,98092.91
2022-10-16T04:19:25.790Z,98109.91
2022-10-16T04:21:51.892Z,98108.97
2022-10-16T04:24:17.972Z,98111.09
2022-10-16T04:26:44.063Z,98124.38
2022-10-16T04:29:10.471Z,98119.69
2022-10-16T04:31:36.574Z,98120.69
2022-10-16T04:34:02.667Z,98115.00
2022-10-16T04:36:29.402Z,98112.34
2022-10-16T04:38:55.585Z,98133.63
2022-10-16T04:41:21.672Z,98129.72
2022-10-16T04:43:47.777Z,98137.47
2022-10-16T04:46:13.857Z,98131.97
2022-10-16T04:48:39.946Z,98137.47
2022-10-16T04:51:06.070Z,98140.13
2022-10-16T04:53:32.159Z,98144.00
2022-10-16T04:55:58.248Z,98158.97
2022-10-16T04:58:24.370Z,98154.28
2022-10-16T05:00:50.466Z,98137.44
2022-10-16T05:03:16.704Z,98134.75
2022-10-16T05:05:43.428Z,98141.56
2022-10-16T05:08:09.524Z,98135.44
2022-10-16T05:10:35.611Z,98122.28
2022-10-16T05:13:01.717Z,98133.09
2022-10-16T05:15:27.817Z,98145.59
2022-10-16T05:17:53.903Z,98144.56
2022-10-16T05:20:20.047Z,98146.63
2022-10-16T05:22:46.124Z,98160.69
2022-10-16T05:25:12.216Z,98152.88
2022-10-16T05:27:38.330Z,98150.03
2022-10-16T05:30:06.479Z,98149.88
2022-10-16T05:32:34.742Z,98146.34
2022-10-16T05:35:00.854Z,98171.28
2022-10-16T05:37:27.270Z,98178.88
2022-10-16T05:39:53.672Z,98181.91
2022-10-16T05:42:19.796Z,98174.31
2022-10-16T05:44:45.875Z,98174.78
2022-10-16T05:47:11.966Z,98179.81
2022-10-16T05:49:40.533Z,98174.50
2022-10-16T05:52:07.641Z,98193.69
2022-10-16T05:54:33.735Z,98189.81
2022-10-16T05:56:59.838Z,98201.88
2022-10-16T05:59:25.911Z,98205.59
2022-10-16T06:01:51.999Z,98194.97
2022-10-16T06:04:18.138Z,98200.28
2022-10-16T06:06:44.222Z,98217.47
2022-10-16T06:09:10.315Z,98224.63
2022-10-16T06:11:36.425Z,98223.41
2022-10-16T06:14:02.521Z,98218.28
2022-10-16T06:16:28.611Z,98225.25
2022-10-16T06:18:54.721Z,98227.53
2022-10-16T06:21:20.795Z,98225.69
2022-10-16T06:26:17.914Z,98233.72
2022-10-16T06:28:44.121Z,98232.69
2022-10-16T06:31:10.257Z,98235.00
2022-10-16T06:33:36.389Z,98245.06
2022-10-16T06:36:02.472Z,98253.66
2022-10-16T06:38:28.565Z,98260.84
2022-10-16T06:40:55.168Z,98256.00
2022-10-16T06:43:21.256Z,98253.50
2022-10-16T06:45:47.346Z,98251.09
2022-10-16T06:48:13.461Z,98251.09
2022-10-16T06:50:39.549Z,98269.72
2022-10-16T06:53:05.647Z,98262.63
2022-10-16T06:55:31.764Z,98262.06
2022-10-16T06:57:57.873Z,98260.84
2022-10-16T07:02:50.998Z,98271.53
2022-10-16T07:05:17.088Z,98280.22
2022-10-16T07:07:43.171Z,98290.47
2022-10-16T07:10:09.635Z,98298.47
2022-10-16T07:12:35.741Z,98296.88
2022-10-16T07:15:01.830Z,98298.31
2022-10-16T07:17:27.948Z,98313.09
2022-10-16T07:19:54.031Z,98322.16
2022-10-16T07:22:20.116Z,98320.13
2022-10-16T07:24:49.139Z,98325.31
2022-10-16T07:27:17.869Z,98328.97
2022-10-16T07:29:43.955Z,98337.22
2022-10-16T07:32:10.372Z,98341.53
2022-10-16T07:34:36.466Z,98344.41
2022-10-16T07:37:02.566Z,98361.44
2022-10-16T07:39:28.682Z,98360.41
2022-10-16T07:41:54.764Z,98357.09
2022-10-16T07:44:20.849Z,98354.84
2022-10-16T07:46:47.457Z,98361.69
2022-10-16T07:49:13.541Z,98361.22
2022-10-16T07:51:39.651Z,98370.88
2022-10-16T07:54:05.814Z,98369.66
2022-10-16T07:56:31.893Z,98365.59
2022-10-16T07:58:57.985Z,98371.53
2022-10-16T08:01:24.199Z,98370.72
2022-10-16T08:03:50.371Z,98370.09
2022-10-16T08:06:16.507Z,98380.16
2022-10-16T08:08:42.619Z,98380.97
2022-10-16T08:11:08.705Z,98394.91
2022-10-16T08:13:34.797Z,98399.84
2022-10-16T08:16:00.964Z,98394.91
2022-10-16T08:18:27.053Z,98407.22
2022-10-16T08:20:53.136Z,98406.19
2022-10-16T08:23:19.241Z,98412.38
2022-10-16T08:25:45.320Z,98425.28
2022-10-16T08:28:11.437Z,98429.41
2022-10-16T08:30:37.555Z,98423.50
2022-10-16T08:33:03.634Z,98415.50
2022-10-16T08:35:29.718Z,98423.56
2022-10-16T08:37:55.869Z,98435.03
2022-10-16T08:40:22.121Z,98432.78
2022-10-16T08:42:48.325Z,98439.84
2022-10-16T08:45:14.573Z,98439.00
2022-10-16T08:47:40.661Z,98435.31
2022-10-16T08:50:06.803Z,98446.88
2022-10-16T08:52:32.938Z,98444.84
2022-10-16T08:54:59.036Z,98449.63
2022-10-16T08:57:25.120Z,98457.25
2022-10-16T08:59:51.225Z,98459.53
2022-10-16T09:02:17.317Z,98453.78
2022-10-16T09:04:43.421Z,98485.00
2022-10-16T09:07:09.537Z,98463.47
2022-10-16T09:09:35.659Z,98478.66
2022-10-16T09:12:01.760Z,98473.38
2022-10-16T09:14:27.879Z,98472.56
2022-10-16T09:16:53.996Z,98490.25
2022-10-16T09:19:20.085Z,98492.53
2022-10-16T09:21:46.182Z,98489.88
2022-10-16T09:24:12.274Z,98503.47
2022-10-16T09:26:38.360Z,98496.72
2022-10-16T09:29:04.553Z,98506.81
2022-10-16T09:31:30.705Z,98499.84
2022-10-16T09:33:56.805Z,98496.63
2022-10-16T09:36:22.923Z,98494.34
2022-10-16T09:38:49.003Z,98500.13
2022-10-16T09:41:15.112Z,98504.25
2022-10-16T09:43:41.353Z,98503.03
2022-10-16T09:46:07.460Z,98507.38
2022-10-16T09:48:33.608Z,98513.16
2022-10-16T09:50:59.758Z,98509.88
2022-10-16T09:53:25.840Z,98514.84
2022-10-16T09:55:51.924Z,98512.59
2022-10-16T09:58:18.042Z,98521.47
2022-10-16T10:00:44.133Z,98524.16
2022-10-16T10:03:10.231Z,98517.78
2022-10-16T10:05:36.324Z,98517.97
2022-10-16T10:08:02.417Z,98521.91
2022-10-16T10:10:28.548Z,98515.56
2022-10-16T10:12:54.690Z,98517.63
2022-10-16T10:15:20.838Z,98508.34
2022-10-16T10:17:46.968Z,98519.91
2022-10-16T10:20:13.622Z,98519.88
2022-10-16T10:22:39.758Z,98524.19
2022-10-16T10:25:05.979Z,98526.69
2022-10-16T10:27:32.098Z,98527.50
2022-10-16T10:29:58.201Z,98541.91
2022-10-16T10:32:24.725Z,98534.50
2022-10-16T10:34:54.266Z,98534.94
2022-10-16T10:37:22.829Z,98528.53
2022-10-16T10:39:48.958Z,98511.88
2022-10-16T10:42:15.115Z,98534.72
2022-10-16T10:44:41.209Z,98525.03
2022-10-16T10:47:07.320Z,98525.03
2022-10-16T10:49:33.439Z,98536.78
2022-10-16T10:51:59.523Z,98532.25
2022-10-16T10:54:25.605Z,98528.56
2022-10-16T10:56:51.710Z,98528.94
2022-10-16T10:59:17.784Z,98536.56
2022-10-16T11:01:43.931Z,98531.22
2022-10-16T11:04:10.068Z,98538.22
2022-10-16T11:06:36.193Z,98533.06
2022-10-16T11:09:02.296Z,98534.31
2022-10-16T11:11:28.403Z,98538.00
2022-10-16T11:13:54.488Z,98538.22
2022-10-16T11:16:21.653Z,98529.78
2022-10-16T11:18:47.986Z,98522.16
2022-10-16T11:21:14.099Z,98532.06
2022-10-16T11:23:40.184Z,98545.44
2022-10-16T11:26:06.645Z,98545.84
2022-10-16T11:28:32.814Z,98544.63
2022-10-16T11:30:58.948Z,98547.91
2022-10-16T11:33:25.140Z,98549.75
2022-10-16T11:35:51.285Z,98545.19
2022-10-16T11:38:17.413Z,98551.38
2022-10-16T11:40:43.920Z,98550.16
2022-10-16T11:45:36.141Z,98544.38
2022-10-16T11:48:02.684Z,98536.09
2022-10-16T11:50:29.341Z,98535.28
2022-10-16T11:52:55.543Z,98543.50
2022-10-16T11:55:22.303Z,98550.53
2022-10-16T11:57:48.380Z,98549.06
2022-10-16T12:00:14.480Z,98549.28
2022-10-16T12:02:40.587Z,98550.31
2022-10-16T12:05:06.731Z,98543.69
2022-10-16T12:07:32.892Z,98540.81
2022-10-16T12:09:59.122Z,98551.03
2022-10-16T12:12:25.629Z,98546.91
2022-10-16T12:15:14.624Z,98551.03
2022-10-16T12:17:38.055Z,98544.84
2022-10-16T12:20:04.167Z,98541.13
2022-10-16T12:22:30.284Z,98556.38
2022-10-16T12:24:56.427Z,98571.41
2022-10-16T12:27:22.618Z,98572.19
2022-10-16T12:29:49.622Z,98556.16
2022-10-16T12:32:19.392Z,98564.22
2022-10-16T12:34:50.240Z,98576.16
2022-10-16T12:37:16.349Z,98569.97
2022-10-16T12:39:42.432Z,98576.13
2022-10-16T12:42:08.532Z,98576.97
2022-10-16T12:44:34.642Z,98573.53
2022-10-16T12:47:00.723Z,98577.63
2022-10-16T12:49:26.875Z,98580.94
2022-10-16T12:51:52.967Z,98581.75
2022-10-16T12:54:19.063Z,98575.56
2022-10-16T12:56:45.149Z,98567.09
2022-10-16T12:59:11.276Z,98564.19
2022-10-16T13:01:37.417Z,98567.88
2022-10-16T13:04:03.515Z,98564.13
2022-10-16T13:06:29.645Z,98575.66
2022-10-16T13:08:55.738Z,98584.06
2022-10-16T13:11:21.823Z,98594.56
2022-10-16T13:13:47.941Z,98590.63
2022-10-16T13:16:14.085Z,98586.81
2022-10-16T13:18:40.199Z,98604.28
2022-10-16T13:21:06.429Z,98600.22
2022-10-16T13:23:32.508Z,98602.03
2022-10-16T13:25:58.600Z,98603.84
2022-10-16T13:28:24.746Z,98586.81
2022-10-16T13:30:50.857Z,98588.28
2022-10-16T13:33:16.959Z,98584.03
2022-10-16T13:35:43.107Z,98587.75
2022-10-16T13:38:09.222Z,98590.00
2022-10-16T13:40:35.411Z,98579.91
2022-10-16T13:43:01.589Z,98575.97
2022-10-16T13:45:27.830Z,98582.56
2022-10-16T13:47:53.921Z,98583.91
2022-10-16T13:50:20.037Z,98587.59
2022-10-16T13:52:46.135Z,98604.03
2022-10-16T13:55:12.222Z,98609.63
2022-10-16T13:57:38.406Z,98613.72
2022-10-16T14:00:04.514Z,98618.22
2022-10-16T14:02:30.732Z,98613.50
2022-10-16T14:04:56.949Z,98613.78
2022-10-16T14:07:23.033Z,98603.03
2022-10-16T14:09:49.131Z,98604.28
2022-10-16T14:12:15.257Z,98610.41
2022-10-16T14:14:41.340Z,98604.28
2022-10-16T14:17:07.440Z,98594.75
2022-10-16T14:19:33.536Z,98590.28
2022-10-16T14:21:59.623Z,98588.19
2022-10-16T14:24:25.712Z,98598.03
2022-10-16T14:26:51.805Z,98601.97
2022-10-16T14:29:17.893Z,98605.41
2022-10-16T14:31:43.995Z,98613.34
2022-10-16T14:34:10.104Z,98607.41
2022-10-16T14:36:36.231Z,98608.56
2022-10-16T14:39:02.420Z,98615.25
2022-10-16T14:41:28.613Z,98612.66
2022-10-16T14:43:54.701Z,98620.75
2022-10-16T14:48:47.832Z,98630.53
2022-10-16T14:51:13.907Z,98620.56
2022-10-16T14:53:40.011Z,98621.59
2022-10-16T14:56:06.134Z,98618.72
2022-10-16T14:58:32.225Z,98608.13
2022-10-16T15:00:58.306Z,98598.72
2022-10-16T15:03:24.461Z,98606.16
2022-10-16T15:05:50.562Z,98601.25
2022-10-16T15:08:16.664Z,98589.09
2022-10-16T15:10:42.768Z,98606.84
2022-10-16T15:13:08.865Z,98610.94
2022-10-16T15:15:34.966Z,98609.72
2022-10-16T15:18:01.075Z,98617.38
2022-10-16T15:20:27.173Z,98608.13
2022-10-16T15:22:53.261Z,98608.34
2022-10-16T15:25:19.369Z,98623.44
2022-10-16T15:27:45.459Z,98617.13
2022-10-16T15:30:11.540Z,98608.44
2022-10-16T15:32:37.670Z,98624.09
2022-10-16T15:35:03.831Z,98624.53
2022-10-16T15:37:29.969Z,98632.38
2022-10-16T15:39:56.577Z,98625.56
2022-10-16T15:42:22.678Z,98627.84
2022-10-16T15:44:48.762Z,98616.50
2022-10-16T15:47:14.862Z,98604.59
2022-10-16T15:49:40.949Z,98597.34
2022-10-16T15:52:07.051Z,98606.03
2022-10-16T15:54:33.153Z,98612.81
2022-10-16T15:56:59.250Z,98620.66
2022-10-16T15:59:25.332Z,98614.06
2022-10-16T16:01:52.155Z,98622.75
2022-10-16T16:04:42.251Z,98619.66
2022-10-16T16:07:04.426Z,98621.13
2022-10-16T16:09:30.531Z,98619.88
2022-10-16T16:11:56.665Z,98618.25
2022-10-16T16:14:22.775Z,98604.47
2022-10-16T16:16:48.852Z,98614.75
2022-10-16T16:19:14.959Z,98612.50
2022-10-16T16:21:41.073Z,98613.34
2022-10-16T16:24:07.304Z,98616.00
2022-10-16T16:26:33.451Z,98619.94
2022-10-16T16:28:59.601Z,98612.75
2022-10-16T16:31:25.759Z,98613.13
2022-10-16T16:33:51.849Z,98616.66
2022-10-16T16:36:17.968Z,98617.91
2022-10-16T16:38:44.069Z,98617.91
2022-10-16T16:41:10.176Z,98608.63
2022-10-16T16:43:36.328Z,98623.88
2022-10-16T16:46:02.433Z,98616.88
2022-10-16T16:48:28.506Z,98605.94
2022-10-16T16:50:54.660Z,98611.91
2022-10-16T16:53:20.732Z,98623.25
2022-10-16T16:55:46.857Z,98626.34
2022-10-16T16:58:12.979Z,98626.53
2022-10-16T17:00:47.268Z,98625.91
2022-10-16T17:03:17.732Z,98624.69
2022-10-16T17:05:43.863Z,98630.44
2022-10-16T17:08:09.971Z,98632.72
2022-10-16T17:10:36.138Z,98632.94
2022-10-16T17:13:02.234Z,98640.75
2022-10-16T17:15:31.498Z,98646.31
2022-10-16T17:17:57.626Z,98643.00
2022-10-16T17:20:23.710Z,98641.75
2022-10-16T17:22:49.813Z,98636.81
2022-10-16T17:25:15.930Z,98638.03
2022-10-16T17:27:42.041Z,98630.81
2022-10-16T17:30:08.144Z,98640.72
2022-10-16T17:32:34.260Z,98635.97
2022-10-16T17:35:00.345Z,98643.38
2022-10-16T17:37:27.747Z,98634.75
2022-10-16T17:39:53.907Z,98641.31
2022-10-16T17:42:20.006Z,98642.13
2022-10-16T17:44:46.083Z,98651.38
2022-10-16T17:47:12.225Z,98655.50
2022-10-16T17:49:38.314Z,98645.84
2022-10-16T17:52:04.399Z,98656.97
2022-10-16T17:54:30.550Z,98662.53
2022-10-16T17:56:56.632Z,98651.63
2022-10-16T17:59:22.721Z,98644.59
2022-10-16T18:01:49.043Z,98654.28
2022-10-16T18:04:15.153Z,98661.03
2022-10-16T18:06:41.250Z,98653.25
2022-10-16T18:09:07.397Z,98659.41
2022-10-16T18:11:33.480Z,98660.25
2022-10-16T18:13:59.564Z,98665.59
2022-10-16T18:16:25.679Z,98670.75
2022-10-16T18:18:51.769Z,98673.22
2022-10-16T18:21:17.856Z,98669.72
2022-10-16T18:23:49.057Z,98679.59
2022-10-16T18:26:18.216Z,98677.31
2022-10-16T18:28:44.396Z,98676.31
2022-10-16T18:31:10.544Z,98681.41
2022-10-16T18:33:36.657Z,98674.88
2022-10-16T18:36:02.765Z,98671.56
2022-10-16T18:38:28.852Z,98670.72
2022-10-16T18:40:54.942Z,98673.00
2022-10-16T18:43:21.198Z,98662.69
2022-10-16T18:45:47.313Z,98666.00
2022-10-16T18:48:13.397Z,98671.75
2022-10-16T18:50:39.493Z,98658.56
2022-10-16T18:53:05.612Z,98660.00
2022-10-16T18:55:31.694Z,98664.78
2022-10-16T18:57:57.821Z,98655.50
2022-10-16T19:00:23.917Z,98642.72
2022-10-16T19:02:50.000Z,98650.75
2022-10-16T19:05:16.108Z,98652.78
2022-10-16T19:07:42.196Z,98655.88
2022-10-16T19:10:08.291Z,98653.22
2022-10-16T19:12:34.384Z,98653.22
2022-10-16T19:15:00.514Z,98656.88
2022-10-16T19:17:26.626Z,98654.84
2022-10-16T19:19:52.758Z,98660.59
2022-10-16T19:22:18.865Z,98643.34
2022-10-16T19:24:44.952Z,98650.94
2022-10-16T19:27:11.062Z,98652.16
2022-10-16T19:29:37.143Z,98655.69
2022-10-16T19:32:06.568Z,98662.88
2022-10-16T19:34:33.631Z,98657.53
2022-10-16T19:36:59.727Z,98664.72
2022-10-16T19:39:25.825Z,98667.59
2022-10-16T19:41:51.946Z,98683.44
2022-10-16T19:44:18.032Z,98668.03
2022-10-16T19:46:44.115Z,98678.31
2022-10-16T19:49:10.234Z,98682.03
2022-10-16T19:51:36.333Z,98679.97
2022-10-16T19:54:02.433Z,98686.97
2022-10-16T19:56:28.836Z,98696.84
2022-10-16T19:58:54.944Z,98705.06
2022-10-16T20:01:21.080Z,98712.06
2022-10-16T20:03:47.269Z,98731.44
2022-10-16T20:06:13.347Z,98738.22
2022-10-16T20:08:39.447Z,98746.03
2022-10-16T20:11:06.078Z,98732.25
2022-10-16T20:13:32.166Z,98743.31
2022-10-16T20:15:58.332Z,98747.47
2022-10-16T20:18:24.511Z,98744.81
2022-10-16T20:20:50.653Z,98742.91
2022-10-16T20:23:16.799Z,98747.44
2022-10-16T20:25:42.897Z,98743.69
2022-10-16T20:28:08.993Z,98744.16
2022-10-16T20:30:35.074Z,98735.53
2022-10-16T20:33:01.185Z,98734.84
2022-10-16T20:35:27.283Z,98729.72
2022-10-16T20:37:53.467Z,98730.31
2022-10-16T20:40:19.571Z,98719.81
2022-10-16T20:42:45.660Z,98716.09
2022-10-16T20:45:11.790Z,98704.81
2022-10-16T20:47:37.895Z,98706.03
2022-10-16T20:50:03.976Z,98709.53
2022-10-16T20:52:30.063Z,98701.88
2022-10-16T20:54:56.178Z,98706.03
2022-10-16T20:57:22.281Z,98703.56
2022-10-16T20:59:48.410Z,98709.31
2022-10-16T21:02:14.742Z,98705.78
2022-10-16T21:04:40.902Z,98711.34
2022-10-16T21:07:06.985Z,98703.97
2022-10-16T21:09:33.118Z,98702.50
2022-10-16T21:11:59.210Z,98713.41
2022-10-16T21:14:25.316Z,98708.03
2022-10-16T21:16:51.488Z,98715.25
2022-10-16T21:19:17.569Z,98716.69
2022-10-16T21:21:43.644Z,98716.06
2022-10-16T21:24:12.304Z,98714.81
2022-10-16T21:26:41.247Z,98713.59
2022-10-16T21:29:07.447Z,98715.63
2022-10-16T21:31:33.618Z,98716.25
2022-10-16T21:33:59.736Z,98716.06
2022-10-16T21:36:25.821Z,98712.34
2022-10-16T21:38:51.928Z,98707.81
2022-10-16T21:41:18.008Z,98715.63
2022-10-16T21:43:44.094Z,98714.00
2022-10-16T21:46:10.217Z,98711.31
2022-10-16T21:48:36.321Z,98704.13
2022-10-16T21:51:02.408Z,98709.06
2022-10-16T21:53:28.521Z,98697.75
2022-10-16T21:55:54.627Z,98690.75
2022-10-16T21:58:20.716Z,98696.72
2022-10-16T22:00:46.875Z,98689.94
2022-10-16T22:03:12.970Z,98695.09
2022-10-16T22:05:39.062Z,98688.88
2022-10-16T22:08:05.168Z,98685.63
2022-10-16T22:10:31.262Z,98685.84
2022-10-16T22:12:57.377Z,98682.31
2022-10-16T22:17:49.475Z,98676.97
2022-10-16T22:20:15.556Z,98681.94
2022-10-16T22:22:41.694Z,98677.59
2022-10-16T22:25:07.894Z,98684.81
2022-10-16T22:27:34.077Z,98683.97
2022-10-16T22:30:00.320Z,98680.28
2022-10-16T22:32:26.441Z,98671.63
2022-10-16T22:34:52.576Z,98682.31
2022-10-16T22:37:18.717Z,98689.34
2022-10-16T22:39:44.851Z,98680.28
2022-10-16T22:42:10.958Z,98676.97
2022-10-16T22:44:37.098Z,98678.63
2022-10-16T22:47:03.248Z,98679.47
2022-10-16T22:49:29.406Z,98676.78
2022-10-16T22:51:55.595Z,98682.13
2022-10-16T22:54:21.715Z,98678.63
2022-10-16T22:56:47.834Z,98678.63
2022-10-16T22:59:14.004Z,98675.97
2022-10-16T23:01:40.100Z,98682.13
2022-10-16T23:04:06.194Z,98678.63
2022-10-16T23:06:32.340Z,98682.13
2022-10-16T23:08:58.425Z,98682.75
2022-10-16T23:11:24.525Z,98678.22
2022-10-16T23:13:50.640Z,98674.94
2022-10-16T23:16:16.723Z,98679.69
2022-10-16T23:18:42.803Z,98683.56
2022-10-16T23:21:08.912Z,98673.91
2022-10-16T23:23:35.001Z,98682.75
2022-10-16T23:26:01.094Z,98680.09
2022-10-16T23:28:27.292Z,98685.44
2022-10-16T23:30:53.432Z,98688.94
2022-10-16T23:33:19.525Z,98689.97
2022-10-16T23:35:45.649Z,98693.47
2022-10-16T23:38:11.755Z,98689.97
2022-10-16T23:40:37.889Z,98691.59
2022-10-16T23:43:04.018Z,98690.59
2022-10-16T23:45:30.100Z,98693.88
2022-10-16T23:47:56.199Z,98694.09
2022-10-16T23:50:22.287Z,98705.78
2022-10-16T23:52:48.381Z,98695.94
2022-10-16T23:55:14.482Z,98696.94
2022-10-16T23:57:40.600Z,98699.63
